Time;durP1;ratioP1;P1;durP2;ratioP2;P2;SDS_P1;SDS_P2;PMS_P1;PMS_P2;Temp;Humidity;BMP_temperature;BMP_pressure;BME280_temperature;BME280_humidity;BME280_pressure;Samples;Min_cycle;Max_cycle;Signal;HPM_P1;HPM_P2
2021/03/19 00:02:09;;;;;;;16.33;10.20;;;;;;;1.15;85.56;99082.91;5055155;28;20595;-83
2021/03/19 00:04:37;;;;;;;22.73;10.73;;;;;;;1.06;85.71;99072.94;5054297;28;20060;-82
2021/03/19 00:07:10;;;;;;;26.02;10.45;;;;;;;0.99;85.87;99085.97;5055158;28;20045;-82
2021/03/19 00:09:37;;;;;;;23.27;10.95;;;;;;;1.08;85.67;99079.03;5055079;28;20080;-81
2021/03/19 00:12:04;;;;;;;18.55;9.95;;;;;;;1.01;85.94;99086.72;5054875;28;20549;-82
2021/03/19 00:14:30;;;;;;;19.67;11.73;;;;;;;0.97;85.58;99069.19;5054337;28;20055;-81
2021/03/19 00:16:56;;;;;;;19.55;10.18;;;;;;;1.05;85.67;99087.31;5054786;28;20057;-82
2021/03/19 00:19:23;;;;;;;22.50;11.57;;;;;;;0.99;85.96;99094.00;5053667;28;20455;-81
2021/03/19 00:21:50;;;;;;;21.35;12.15;;;;;;;0.92;86.29;99066.06;5054755;28;20049;-82
2021/03/19 00:24:16;;;;;;;20.15;10.32;;;;;;;0.93;85.66;99058.88;5054149;28;20068;-82
2021/03/19 00:26:43;;;;;;;22.77;11.88;;;;;;;1.01;85.75;99080.50;5054882;28;20390;-81
2021/03/19 00:29:09;;;;;;;25.83;11.75;;;;;;;0.86;86.33;99086.16;5054482;28;20044;-81
2021/03/19 00:31:36;;;;;;;26.10;12.27;;;;;;;0.73;86.60;99063.19;5054349;28;20049;-82
2021/03/19 00:34:02;;;;;;;22.48;12.07;;;;;;;0.80;87.05;99089.31;5050540;28;20087;-81
2021/03/19 00:36:31;;;;;;;23.30;10.65;;;;;;;0.69;86.58;99059.88;5045215;28;20044;-82
2021/03/19 00:38:59;;;;;;;26.85;13.38;;;;;;;0.82;87.08;99070.47;5054430;28;20057;-82
2021/03/19 00:41:25;;;;;;;24.48;11.95;;;;;;;0.79;86.97;99062.69;5054630;28;20060;-82
2021/03/19 00:43:51;;;;;;;22.38;12.00;;;;;;;0.84;86.86;99068.50;5054533;28;20060;-82
2021/03/19 00:46:18;;;;;;;19.95;11.90;;;;;;;0.76;87.72;99066.44;5053499;28;20053;-81
2021/03/19 00:48:45;;;;;;;19.65;12.18;;;;;;;0.74;86.94;99067.53;5038001;28;20055;-81
2021/03/19 00:51:12;;;;;;;18.90;11.68;;;;;;;0.70;87.41;99072.31;5054430;28;20049;-82
2021/03/19 00:53:39;;;;;;;22.25;12.00;;;;;;;0.77;87.32;99064.63;5054306;28;20045;-82
2021/03/19 00:56:06;;;;;;;24.10;12.23;;;;;;;0.69;87.22;99071.47;5053446;28;20059;-82
2021/03/19 00:58:32;;;;;;;26.15;13.15;;;;;;;0.78;86.95;99079.72;5053927;28;20099;-82
2021/03/19 01:00:59;;;;;;;19.55;11.90;;;;;;;0.80;87.96;99077.75;5053690;28;20516;-82
2021/03/19 01:03:25;;;;;;;19.45;11.57;;;;;;;0.83;87.17;99067.66;5054402;28;20444;-81
2021/03/19 01:05:51;;;;;;;22.92;12.63;;;;;;;0.85;87.37;99059.50;5053292;28;20082;-82
2021/03/19 01:08:18;;;;;;;26.10;12.75;;;;;;;0.82;87.66;99060.59;5054297;28;20068;-82
2021/03/19 01:10:46;;;;;;;25.27;13.63;;;;;;;0.86;87.44;99066.56;5053732;28;20065;-82
2021/03/19 01:13:15;;;;;;;27.20;13.67;;;;;;;0.67;87.30;99051.16;5053679;28;20056;-82
2021/03/19 01:15:42;;;;;;;21.50;12.85;;;;;;;0.63;88.13;99055.03;5053105;28;20045;-82
2021/03/19 01:18:09;;;;;;;28.70;14.43;;;;;;;0.77;87.78;99064.63;5052637;28;20099;-82
2021/03/19 01:20:38;;;;;;;25.50;13.45;;;;;;;0.75;87.87;99072.78;5053897;28;20417;-82
2021/03/19 01:23:05;;;;;;;28.55;14.68;;;;;;;0.75;88.53;99058.56;5041180;28;20057;-82
2021/03/19 01:25:31;;;;;;;26.58;14.32;;;;;;;0.67;88.41;99054.66;5042799;28;20051;-82
2021/03/19 01:27:58;;;;;;;21.23;13.33;;;;;;;0.78;88.23;99069.84;5045149;28;20100;-82
2021/03/19 01:30:29;;;;;;;25.17;13.55;;;;;;;0.63;88.05;99039.84;5034169;28;20057;-82
2021/03/19 01:32:55;;;;;;;28.65;14.85;;;;;;;0.71;87.96;99031.19;5035129;28;20053;-82
2021/03/19 01:35:24;;;;;;;24.00;13.63;;;;;;;0.76;87.79;99047.72;5051081;28;20045;-82
2021/03/19 01:37:51;;;;;;;25.50;14.23;;;;;;;0.86;88.13;99051.34;5051387;28;20079;-82
2021/03/19 01:40:20;;;;;;;32.63;15.50;;;;;;;0.80;87.74;99040.28;5050343;28;20052;-82
2021/03/19 01:42:47;;;;;;;24.75;14.73;;;;;;;0.75;88.68;99039.81;5053404;28;20057;-81
2021/03/19 01:45:46;;;;;;;25.77;13.50;;;;;;;0.78;88.18;99044.91;5051863;28;20068;-81
2021/03/19 01:48:49;;;;;;;27.77;14.30;;;;;;;0.79;88.36;99039.44;5053261;28;20064;-81
2021/03/19 01:51:53;;;;;;;21.90;12.75;;;;;;;0.80;88.00;99032.25;5034063;28;20042;-81
2021/03/19 01:54:56;;;;;;;23.92;13.25;;;;;;;0.75;88.16;99032.63;5052451;28;20064;-81
2021/03/19 01:57:59;;;;;;;25.07;12.17;;;;;;;0.70;88.17;99037.53;5052898;28;20083;-81
2021/03/19 02:01:02;;;;;;;26.03;13.40;;;;;;;0.78;87.57;99023.50;5033604;28;20053;-81
2021/03/19 02:04:06;;;;;;;23.80;13.48;;;;;;;0.61;88.35;99027.56;5051963;28;20056;-82
2021/03/19 02:07:09;;;;;;;22.77;13.90;;;;;;;0.66;87.60;99025.34;5052776;28;20056;-82
2021/03/19 02:10:12;;;;;;;24.10;12.83;;;;;;;0.64;88.24;99033.50;5051898;28;20045;-81
2021/03/19 02:13:16;;;;;;;21.90;13.57;;;;;;;0.67;88.09;99032.41;5052157;28;20049;-81
2021/03/19 02:16:19;;;;;;;26.63;13.03;;;;;;;0.67;87.92;99027.06;5052055;28;20118;-81
2021/03/19 02:19:23;;;;;;;27.70;14.93;;;;;;;0.61;88.17;99031.09;5051673;28;20045;-82
2021/03/19 02:22:26;;;;;;;26.37;15.30;;;;;;;0.57;89.00;99021.59;5043571;28;20049;-82
2021/03/19 02:25:28;;;;;;;29.37;15.07;;;;;;;0.52;88.25;99002.41;5051867;28;20053;-82
2021/03/19 02:28:31;;;;;;;33.97;17.20;;;;;;;0.72;87.58;99030.22;5037182;28;20507;-82
2021/03/19 02:31:12;;;;;;;27.73;16.07;;;;;;;0.70;87.69;99035.69;5052974;28;20045;-82
2021/03/19 02:33:46;;;;;;;29.73;15.20;;;;;;;0.67;87.86;99032.41;5052678;28;20469;-82
2021/03/19 02:36:13;;;;;;;34.43;17.60;;;;;;;0.69;87.93;99033.13;5049517;28;20471;-82
2021/03/19 02:38:40;;;;;;;35.47;16.90;;;;;;;0.65;88.43;99039.72;5049916;28;20099;-81
2021/03/19 02:41:06;;;;;;;30.27;17.17;;;;;;;0.50;88.21;99015.91;5051524;28;20057;-82
2021/03/19 02:43:32;;;;;;;36.13;17.23;;;;;;;0.56;87.58;99011.91;5052314;28;20053;-82
2021/03/19 02:45:59;;;;;;;32.30;18.20;;;;;;;0.59;88.01;99016.13;5051461;28;20052;-81
2021/03/19 02:48:25;;;;;;;36.60;17.40;;;;;;;0.51;88.62;99003.38;5052467;28;20049;-82
2021/03/19 02:50:52;;;;;;;28.47;17.33;;;;;;;0.62;88.54;99016.75;5052541;28;20056;-82
2021/03/19 02:53:22;;;;;;;28.80;18.00;;;;;;;0.48;88.79;99000.94;5055893;28;20049;-82
2021/03/19 02:55:49;;;;;;;;;;;;;;;0.58;89.54;99012.63;5056311;28;20045;-82
2021/03/19 02:58:15;;;;;;;28.07;15.37;;;;;;;0.52;88.95;98992.56;5056561;28;19991;-82
2021/03/19 03:00:42;;;;;;;24.67;15.60;;;;;;;0.65;88.03;99007.63;5056341;28;20519;-81
2021/03/19 03:03:09;;;;;;;26.80;17.27;;;;;;;0.65;87.81;99008.47;5055555;28;20131;-81
2021/03/19 03:05:35;;;;;;;31.73;17.07;;;;;;;0.69;87.93;99017.94;5055595;28;20052;-82
2021/03/19 03:08:05;;;;;;;31.70;17.53;;;;;;;0.52;87.86;98989.88;5056218;28;20045;-82
2021/03/19 03:10:34;;;;;;;33.95;17.58;;;;;;;0.57;87.35;99010.91;5055968;28;20056;-82
2021/03/19 03:13:00;;;;;;;28.87;16.80;;;;;;;0.63;88.29;99021.13;5056246;28;20048;-82
2021/03/19 03:15:27;;;;;;;25.90;15.77;;;;;;;0.46;88.22;99008.25;5055524;28;20056;-82
2021/03/19 03:17:53;;;;;;;33.20;17.23;;;;;;;0.49;88.17;98997.31;5055034;28;20041;-82
2021/03/19 03:20:22;;;;;;;31.25;17.30;;;;;;;0.59;88.25;99021.47;5055888;28;20045;-82
2021/03/19 03:22:48;;;;;;;32.20;17.17;;;;;;;0.59;88.71;99022.34;5056074;28;20057;-82
2021/03/19 03:25:17;;;;;;;38.03;16.93;;;;;;;0.64;87.43;99027.31;5035412;28;20539;-82
2021/03/19 03:27:43;;;;;;;38.77;17.37;;;;;;;0.52;88.40;99007.75;5041032;28;20106;-82
2021/03/19 03:30:14;;;;;;;33.50;18.33;;;;;;;0.52;88.29;99013.94;5055816;28;20060;-82
2021/03/19 03:32:40;;;;;;;32.00;18.47;;;;;;;0.47;88.58;98997.44;5055693;28;20056;-82
2021/03/19 03:35:09;;;;;;;29.17;17.13;;;;;;;0.53;87.95;99012.16;5054433;28;20049;-82
2021/03/19 03:37:35;;;;;;;34.03;19.47;;;;;;;0.65;88.08;99032.53;5052664;28;20397;-82
2021/03/19 03:40:03;;;;;;;31.10;16.53;;;;;;;0.57;87.79;99010.06;5054276;28;20060;-82
2021/03/19 03:42:31;;;;;;;31.53;17.53;;;;;;;0.49;88.53;99008.84;5055637;28;20053;-82
2021/03/19 03:44:57;;;;;;;34.13;18.70;;;;;;;0.57;88.04;99002.03;5054703;28;20057;-82
2021/03/19 03:47:23;;;;;;;32.77;18.30;;;;;;;0.42;88.68;98998.78;5055758;28;20041;-82
2021/03/19 03:49:49;;;;;;;31.70;17.40;;;;;;;0.37;88.62;99001.84;5055673;28;20063;-82
2021/03/19 03:52:16;;;;;;;35.40;16.87;;;;;;;0.51;88.98;99006.91;5055052;28;20056;-81
2021/03/19 03:54:42;;;;;;;35.77;18.47;;;;;;;0.63;88.66;99021.13;5055066;28;20083;-82
2021/03/19 03:57:08;;;;;;;34.67;18.17;;;;;;;0.49;88.38;98989.28;5055292;28;20045;-81
2021/03/19 03:59:36;;;;;;;30.33;17.90;;;;;;;0.58;88.05;99011.78;5055180;28;20539;-81
2021/03/19 04:02:16;;;;;;;30.60;16.38;;;;;;;0.51;88.22;99014.06;5054754;28;20116;-81
2021/03/19 04:04:42;;;;;;;28.37;17.53;;;;;;;0.73;87.61;99020.38;5054970;28;20059;-81
2021/03/19 04:07:09;;;;;;;34.23;16.40;;;;;;;0.74;87.58;99017.56;5055242;28;20060;-81
2021/03/19 04:09:35;;;;;;;31.63;17.03;;;;;;;0.66;87.29;99012.84;5054677;28;20053;-81
2021/03/19 04:12:01;;;;;;;29.93;17.43;;;;;;;0.65;87.51;99019.16;5055103;28;20110;-81
2021/03/19 04:14:31;;;;;;;33.40;16.60;;;;;;;0.49;87.68;99000.00;5054047;28;20049;-81
2021/03/19 04:16:58;;;;;;;29.17;18.10;;;;;;;0.49;88.38;99014.19;5054584;28;20065;-81
2021/03/19 04:19:25;;;;;;;31.47;18.80;;;;;;;0.62;88.09;99027.44;5053021;28;20049;-81
2021/03/19 04:21:51;;;;;;;33.80;17.00;;;;;;;0.65;87.84;99023.69;5054338;28;20059;-81
2021/03/19 04:24:21;;;;;;;29.23;17.80;;;;;;;0.60;87.79;99021.34;5053551;28;20060;-81
2021/03/19 04:26:47;;;;;;;30.73;17.83;;;;;;;0.51;87.82;99014.06;5054076;28;20053;-80
2021/03/19 04:29:13;;;;;;;38.10;17.87;;;;;;;0.54;88.32;98997.78;5054104;28;20489;-81
2021/03/19 04:31:41;;;;;;;31.63;17.83;;;;;;;0.48;87.80;98993.81;5054209;28;20049;-81
2021/03/19 04:34:08;;;;;;;34.23;17.70;;;;;;;0.56;88.49;99014.56;5053649;28;20049;-81
2021/03/19 04:36:41;;;;;;;38.00;18.87;;;;;;;0.50;87.75;99004.38;5052052;28;20041;-81
2021/03/19 04:39:12;;;;;;;37.23;19.97;;;;;;;0.41;87.80;99000.63;5052604;28;20057;-81
2021/03/19 04:41:38;;;;;;;39.30;18.73;;;;;;;0.35;88.27;99001.13;5053951;28;20051;-81
2021/03/19 04:44:05;;;;;;;33.37;18.27;;;;;;;0.32;88.41;98996.84;5053813;28;20068;-81
2021/03/19 04:46:32;;;;;;;34.33;18.30;;;;;;;0.49;88.58;99022.22;5054154;28;20052;-82
2021/03/19 04:48:59;;;;;;;35.47;20.53;;;;;;;0.48;88.81;99014.31;5054725;28;20043;-81
2021/03/19 04:51:27;;;;;;;40.23;18.33;;;;;;;0.45;88.82;99015.44;5054240;28;20052;-81
2021/03/19 04:53:59;;;;;;;37.97;18.97;;;;;;;0.42;88.73;99006.81;5052491;28;20102;-81
2021/03/19 04:56:25;;;;;;;34.17;19.17;;;;;;;0.41;88.68;99013.16;5051674;28;20501;-81
2021/03/19 04:58:53;;;;;;;35.03;19.20;;;;;;;0.44;89.06;99018.25;5054062;28;20051;-81
2021/03/19 05:01:22;;;;;;;39.37;20.03;;;;;;;0.43;88.25;99017.38;5052947;28;20045;-81
2021/03/19 05:03:49;;;;;;;39.15;19.95;;;;;;;0.35;88.93;99004.63;5054009;28;20616;-81
2021/03/19 05:09:05;;;;;;;35.07;19.17;;;;;;;0.61;88.65;99030.25;5046710;28;20508;-81
2021/03/19 05:11:40;;;;;;;39.37;20.37;;;;;;;0.48;88.58;99028.56;5053750;28;20433;-81
2021/03/19 05:17:04;;;;;;;41.67;20.93;;;;;;;0.39;88.65;99007.91;5053952;28;20075;-83
2021/03/19 05:19:30;;;;;;;38.50;19.23;;;;;;;0.48;89.16;99023.22;5048750;28;20581;-82
2021/03/19 05:22:01;;;;;;;37.57;20.60;;;;;;;0.43;88.65;99013.88;5052115;28;20056;-81
2021/03/19 05:24:36;;;;;;;46.30;21.10;;;;;;;0.67;88.19;99029.75;5053057;28;20063;-81
2021/03/19 05:27:05;;;;;;;35.87;19.77;;;;;;;0.63;87.87;99031.84;5053706;28;20128;-80
2021/03/19 05:29:33;;;;;;;41.72;20.73;;;;;;;0.51;89.45;99035.47;5051531;28;20505;-81
2021/03/19 05:32:00;;;;;;;34.93;18.73;;;;;;;0.38;89.66;99030.28;5052836;28;20057;-80
2021/03/19 05:34:26;;;;;;;39.17;19.93;;;;;;;0.42;89.54;99037.09;5052423;28;20049;-80
2021/03/19 05:36:56;;;;;;;31.50;18.20;;;;;;;0.46;89.26;99051.91;5053636;28;20061;-81
2021/03/19 05:39:28;;;;;;;33.75;18.45;;;;;;;0.38;89.45;99038.31;5053356;28;20493;-80
2021/03/19 05:41:56;;;;;;;31.63;18.70;;;;;;;0.38;89.72;99030.28;5053634;28;20057;-80
2021/03/19 05:44:27;;;;;;;35.93;19.10;;;;;;;0.49;88.98;99043.63;5052454;28;20063;-80
2021/03/19 05:47:08;;;;;;;40.47;19.90;;;;;;;0.42;89.44;99031.75;5053119;28;20099;-81
2021/03/19 05:49:37;;;;;;;34.70;17.87;;;;;;;0.47;89.08;99042.91;5038981;28;20501;-81
2021/03/19 05:52:19;;;;;;;31.92;18.05;;;;;;;0.64;88.80;99054.06;5033705;28;20068;-81
2021/03/19 05:54:47;;;;;;;33.63;16.97;;;;;;;0.57;88.83;99058.22;5032914;28;20057;-80
2021/03/19 05:57:24;;;;;;;29.13;15.20;;;;;;;0.61;89.15;99071.22;5033241;28;20063;-80
2021/03/19 05:59:52;;;;;;;26.70;12.87;;;;;;;0.57;88.18;99056.38;5033111;28;20052;-80
2021/03/19 06:02:23;;;;;;;29.17;13.57;;;;;;;0.63;89.11;99071.97;5049190;28;20041;-81
2021/03/19 06:05:05;;;;;;;27.17;14.20;;;;;;;0.69;88.51;99076.81;5039937;28;20048;-81
2021/03/19 06:07:47;;;;;;;29.33;15.97;;;;;;;0.70;88.53;99062.44;5052952;28;20060;-80
2021/03/19 06:10:24;;;;;;;31.33;15.20;;;;;;;0.73;87.36;99055.16;5052991;28;20053;-80
2021/03/19 06:13:19;;;;;;;27.80;15.70;;;;;;;0.71;87.73;99071.34;5052102;28;20068;-80
2021/03/19 06:15:48;;;;;;;30.07;16.10;;;;;;;0.58;88.77;99055.41;5051616;28;20041;-80
2021/03/19 06:18:21;;;;;;;35.63;16.63;;;;;;;0.67;89.31;99069.88;5050747;28;20045;-80
2021/03/19 06:20:55;;;;;;;27.57;15.50;;;;;;;0.55;88.87;99058.34;5052204;28;20044;-80
2021/03/19 06:23:23;;;;;;;32.30;15.73;;;;;;;0.57;88.93;99060.88;5048361;28;20106;-80
2021/03/19 06:26:06;;;;;;;27.57;16.37;;;;;;;0.60;88.57;99061.47;5049953;28;20061;-80
2021/03/19 06:28:37;;;;;;;33.47;16.30;;;;;;;0.64;88.60;99057.59;5049949;28;20049;-80
2021/03/19 06:31:19;;;;;;;29.80;15.47;;;;;;;0.76;88.39;99076.31;5049504;28;20041;-80
2021/03/19 06:33:45;;;;;;;30.35;16.02;;;;;;;0.78;88.34;99082.38;5049359;28;20096;-80
2021/03/19 06:36:18;;;;;;;32.27;17.73;;;;;;;0.84;88.07;99084.56;5049472;28;20536;-80
2021/03/19 06:38:48;;;;;;;35.08;17.98;;;;;;;0.82;87.59;99068.63;5050329;28;20062;-81
2021/03/19 06:41:22;;;;;;;35.17;18.27;;;;;;;0.89;87.51;99077.03;5050222;28;20107;-80
2021/03/19 06:43:51;;;;;;;31.77;17.00;;;;;;;0.72;88.64;99069.50;5050098;28;20045;-80
2021/03/19 06:46:24;;;;;;;32.90;15.38;;;;;;;0.64;88.49;99068.28;5049734;28;20057;-80
2021/03/19 06:49:03;;;;;;;26.92;14.27;;;;;;;0.79;88.01;99068.88;5049948;28;20072;-80
2021/03/19 06:51:38;;;;;;;24.67;14.17;;;;;;;0.90;87.87;99081.38;5050537;28;20067;-80
2021/03/19 06:54:08;;;;;;;30.83;17.02;;;;;;;0.83;87.90;99066.81;5049072;28;20071;-80
2021/03/19 06:56:35;;;;;;;29.38;14.85;;;;;;;0.87;87.99;99079.81;5049109;28;20045;-81
2021/03/19 06:59:19;;;;;;;29.80;15.70;;;;;;;0.92;87.74;99073.22;5049686;28;20061;-81
2021/03/19 07:01:46;;;;;;;24.95;14.52;;;;;;;0.92;88.11;99081.25;5037033;28;20412;-81
2021/03/19 07:04:51;;;;;;;29.05;17.38;;;;;;;1.13;86.66;99078.63;5049220;28;20564;-81
2021/03/19 07:07:42;;;;;;;29.25;15.25;;;;;;;1.04;86.64;99069.56;5048890;28;20065;-82
2021/03/19 07:10:27;;;;;;;27.33;16.00;;;;;;;1.13;86.61;99070.59;5049560;28;20044;-81
2021/03/19 07:13:01;;;;;;;31.17;16.02;;;;;;;1.12;87.48;99064.41;5049625;28;20107;-81
2021/03/19 07:15:36;;;;;;;28.95;15.82;;;;;;;1.12;88.09;99077.78;5048944;28;20083;-81
2021/03/19 07:18:05;;;;;;;28.25;16.38;;;;;;;0.99;88.20;99066.41;5047886;28;20056;-81
2021/03/19 07:20:58;;;;;;;28.77;15.45;;;;;;;1.06;87.18;99072.94;5050176;28;20416;-82
2021/03/19 07:23:26;;;;;;;29.25;15.68;;;;;;;1.04;87.58;99078.44;5042124;28;20049;-81
2021/03/19 07:26:06;;;;;;;30.33;15.60;;;;;;;1.14;87.91;99091.91;5049101;28;20439;-81
2021/03/19 07:28:53;;;;;;;;;;;;;;;1.34;86.84;99098.31;5049629;28;20061;-80
2021/03/19 07:31:41;;;;;;;23.92;14.55;;;;;;;1.13;87.10;99079.50;5050950;28;19960;-81
2021/03/19 07:34:22;;;;;;;28.27;16.13;;;;;;;1.27;87.15;99107.81;5050973;28;20136;-82
2021/03/19 07:36:56;;;;;;;42.38;18.80;;;;;;;1.15;87.26;99093.59;5050698;28;20140;-82
2021/03/19 07:39:58;;;;;;;36.83;18.25;;;;;;;0.97;88.18;99104.00;5052982;28;20130;-79
2021/03/19 07:42:53;;;;;;;33.78;18.20;;;;;;;0.96;87.62;99104.13;5053187;28;20520;-80
2021/03/19 07:45:25;;;;;;;27.73;15.70;;;;;;;0.84;88.61;99092.59;5052632;28;20059;-79
2021/03/19 07:48:04;;;;;;;29.33;14.77;;;;;;;1.16;88.07;99110.50;5053361;28;20641;-80
2021/03/19 07:50:43;;;;;;;39.10;16.20;;;;;;;1.20;87.70;99099.41;5052838;28;20060;-80
2021/03/19 07:53:30;;;;;;;31.77;15.05;;;;;;;1.30;87.34;99120.94;5053256;28;20041;-80
2021/03/19 07:56:06;;;;;;;27.35;15.20;;;;;;;1.26;87.46;99114.13;5052150;28;20148;-80
2021/03/19 07:58:50;;;;;;;29.00;15.85;;;;;;;1.24;86.92;99103.56;5052687;28;20111;-80
2021/03/19 08:01:30;;;;;;;29.60;14.20;;;;;;;1.19;86.72;99103.09;5052608;28;20189;-80
2021/03/19 08:04:11;;;;;;;29.17;15.45;;;;;;;1.18;87.35;99113.94;5037223;28;20554;-80
2021/03/19 08:06:45;;;;;;;23.30;12.43;;;;;;;0.86;89.25;99101.38;5051132;28;20061;-80
2021/03/19 08:09:24;;;;;;;26.88;13.00;;;;;;;1.09;88.92;99115.53;5053235;28;20057;-80
2021/03/19 08:11:53;;;;;;;25.17;14.10;;;;;;;1.19;88.09;99103.09;5052718;28;20485;-80
2021/03/19 08:14:38;;;;;;;30.17;15.50;;;;;;;1.42;87.09;99122.59;5051920;28;20041;-79
2021/03/19 08:17:17;;;;;;;25.73;13.55;;;;;;;1.40;86.38;99103.16;5052633;28;20295;-79
2021/03/19 08:19:55;;;;;;;27.33;13.70;;;;;;;1.67;86.93;99125.94;5051137;28;20057;-79
2021/03/19 08:22:28;;;;;;;23.70;13.82;;;;;;;1.77;86.82;99120.63;5052864;28;20049;-80
2021/03/19 08:25:02;;;;;;;24.40;13.68;;;;;;;1.85;85.04;99120.84;5052103;28;20056;-80
2021/03/19 08:27:42;;;;;;;26.60;13.75;;;;;;;2.02;84.40;99129.25;5052733;28;20056;-80
2021/03/19 08:30:37;;;;;;;22.50;12.20;;;;;;;1.75;85.30;99120.75;5052632;28;20060;-80
2021/03/19 08:33:23;;;;;;;22.90;12.10;;;;;;;1.79;86.31;99131.22;5052656;28;20122;-80
2021/03/19 08:36:02;;;;;;;25.13;13.48;;;;;;;2.09;85.33;99133.13;5051878;28;20059;-80
2021/03/19 08:38:35;;;;;;;27.80;13.85;;;;;;;2.25;84.57;99146.06;5052572;28;20041;-80
2021/03/19 08:41:06;;;;;;;26.20;13.80;;;;;;;2.27;84.37;99146.78;5052081;28;20106;-80
2021/03/19 08:43:39;;;;;;;21.15;11.65;;;;;;;2.08;81.88;99121.56;5052459;28;20053;-80
2021/03/19 08:46:11;;;;;;;21.17;11.38;;;;;;;2.14;81.21;99125.53;5051487;28;20052;-80
2021/03/19 08:48:49;;;;;;;13.15;6.88;;;;;;;2.01;82.39;99152.53;5052365;28;20111;-80
2021/03/19 08:51:23;;;;;;;21.25;12.35;;;;;;;2.31;83.02;99156.28;5051262;28;20041;-80
2021/03/19 08:54:14;;;;;;;22.90;12.02;;;;;;;2.48;81.30;99139.56;5052429;28;20136;-80
2021/03/19 08:56:47;;;;;;;16.27;8.35;;;;;;;2.41;82.08;99124.97;5051664;28;20053;-80
2021/03/19 08:59:49;;;;;;;17.77;9.25;;;;;;;2.98;79.65;99149.50;5043810;28;20052;-80
2021/03/19 09:02:45;;;;;;;14.82;8.70;;;;;;;3.01;77.59;99145.69;5051616;28;20075;-80
2021/03/19 09:05:26;;;;;;;15.85;8.75;;;;;;;2.62;79.57;99143.72;5031705;28;20045;-80
2021/03/19 09:08:19;;;;;;;16.95;9.02;;;;;;;2.63;80.11;99145.44;5047229;28;20082;-80
2021/03/19 09:11:12;;;;;;;14.77;9.07;;;;;;;2.53;79.24;99135.63;5032119;28;20131;-80
2021/03/19 09:13:54;;;;;;;16.88;8.40;;;;;;;2.77;77.87;99146.91;5040333;28;20069;-80
2021/03/19 09:16:49;;;;;;;13.77;8.25;;;;;;;2.84;78.14;99147.19;5031007;28;20338;-80
2021/03/19 09:19:42;;;;;;;11.60;6.70;;;;;;;2.60;78.46;99160.94;5030191;28;20404;-80
2021/03/19 09:22:43;;;;;;;10.40;6.72;;;;;;;2.75;78.13;99143.47;5050518;28;20060;-80
2021/03/19 09:25:39;;;;;;;10.63;6.55;;;;;;;2.53;78.74;99147.22;5050837;28;20160;-79
2021/03/19 09:28:33;;;;;;;10.43;5.72;;;;;;;2.48;77.31;99150.31;5035838;28;20131;-79
2021/03/19 09:31:04;;;;;;;12.20;6.88;;;;;;;2.38;78.11;99151.22;5051298;28;20092;-80
2021/03/19 09:33:58;;;;;;;10.02;6.10;;;;;;;2.51;78.17;99167.94;5051101;28;20053;-80
2021/03/19 09:36:57;;;;;;;18.23;7.50;;;;;;;2.69;78.30;99173.53;5050782;28;20067;-80
2021/03/19 09:40:06;;;;;;;11.65;6.32;;;;;;;2.60;78.59;99169.81;5042878;28;20057;-79
2021/03/19 09:43:08;;;;;;;11.40;6.57;;;;;;;2.87;78.20;99159.50;5051227;28;20519;-79
2021/03/19 09:46:03;;;;;;;10.20;6.05;;;;;;;2.97;75.30;99163.91;5050195;28;20053;-80
2021/03/19 09:48:37;;;;;;;8.95;5.72;;;;;;;2.98;76.96;99151.31;5051215;28;20067;-81
2021/03/19 09:51:08;;;;;;;7.93;5.38;;;;;;;3.30;74.37;99161.03;5051015;28;20132;-81
2021/03/19 09:53:38;;;;;;;9.35;5.05;;;;;;;3.34;76.33;99170.50;5050697;28;20045;-80
2021/03/19 09:56:17;;;;;;;7.30;4.90;;;;;;;3.08;75.99;99195.19;5050002;28;20045;-80
2021/03/19 09:58:49;;;;;;;7.38;4.93;;;;;;;2.96;76.67;99198.97;5051154;28;20053;-79
2021/03/19 10:01:27;;;;;;;5.50;4.13;;;;;;;2.75;77.57;99181.06;5048936;28;20056;-80
2021/03/19 10:03:56;;;;;;;5.80;4.32;;;;;;;2.89;77.21;99193.28;5050626;28;20061;-80
2021/03/19 10:06:27;;;;;;;8.18;4.82;;;;;;;2.94;76.24;99206.31;5049210;28;20052;-79
2021/03/19 10:09:05;;;;;;;3.20;2.75;;;;;;;2.59;76.12;99191.44;5051461;28;20481;-80
2021/03/19 10:11:32;;;;;;;6.65;4.80;;;;;;;2.73;77.25;99195.63;5050725;28;20064;-80
2021/03/19 10:14:14;;;;;;;7.47;4.50;;;;;;;2.65;78.18;99225.81;5050764;28;20493;-80
2021/03/19 10:16:43;;;;;;;5.20;3.63;;;;;;;2.33;78.67;99209.78;5050604;28;20527;-80
2021/03/19 10:19:13;;;;;;;6.25;4.22;;;;;;;2.24;78.32;99214.97;5049304;28;20134;-80
2021/03/19 10:21:43;;;;;;;8.02;3.38;;;;;;;2.16;77.45;99213.91;5050973;28;20048;-80
2021/03/19 10:24:10;;;;;;;8.18;4.85;;;;;;;2.33;77.16;99204.44;5049664;28;20439;-80
2021/03/19 10:26:46;;;;;;;5.05;3.25;;;;;;;2.28;77.83;99205.66;5050718;28;20052;-81
2021/03/19 10:29:16;;;;;;;7.35;5.00;;;;;;;2.63;77.32;99208.97;5050295;28;20193;-80
2021/03/19 10:31:47;;;;;;;;;;;;;;;2.76;76.97;99241.00;5051012;28;20505;-80
2021/03/19 10:34:23;;;;;;;5.93;3.92;;;;;;;2.55;78.09;99231.13;5049613;28;19920;-80
2021/03/19 10:36:53;;;;;;;7.75;5.35;;;;;;;2.63;78.51;99235.81;5050669;28;20114;-80
2021/03/19 10:39:28;;;;;;;6.10;4.13;;;;;;;2.59;78.91;99220.97;5050016;28;20495;-79
2021/03/19 10:42:09;;;;;;;7.95;4.78;;;;;;;2.93;77.46;99221.56;5050510;28;20107;-79
2021/03/19 10:44:44;;;;;;;8.27;4.97;;;;;;;3.24;77.68;99240.34;5049327;28;20084;-79
2021/03/19 10:47:18;;;;;;;7.50;4.72;;;;;;;3.09;79.42;99222.91;5050502;28;20053;-80
2021/03/19 10:49:49;;;;;;;7.80;4.22;;;;;;;2.80;76.62;99237.03;5050508;28;20052;-79
2021/03/19 10:52:23;;;;;;;6.85;4.57;;;;;;;2.46;79.17;99224.72;5049978;28;20057;-80
2021/03/19 10:54:51;;;;;;;7.28;3.95;;;;;;;2.41;76.25;99226.94;5048978;28;20045;-80
2021/03/19 10:57:24;;;;;;;6.68;4.47;;;;;;;2.56;78.79;99246.25;5049645;28;20055;-80
2021/03/19 10:59:54;;;;;;;7.60;5.47;;;;;;;2.54;77.74;99234.78;5050220;28;20451;-79
2021/03/19 11:02:25;;;;;;;7.35;4.22;;;;;;;2.74;77.35;99248.31;5050018;28;20047;-80
2021/03/19 11:05:13;;;;;;;10.10;5.07;;;;;;;2.81;77.33;99258.38;5045852;28;20041;-80
2021/03/19 11:07:44;;;;;;;9.73;5.22;;;;;;;2.67;76.49;99264.13;5032388;28;20049;-80
2021/03/19 11:10:16;;;;;;;6.03;3.97;;;;;;;2.36;76.16;99247.94;5049662;28;20045;-80
2021/03/19 11:12:45;;;;;;;10.30;6.47;;;;;;;2.40;74.91;99252.06;5051067;28;20064;-80
2021/03/19 11:15:14;;;;;;;9.70;5.78;;;;;;;2.38;75.45;99246.00;5053377;28;20057;-79
2021/03/19 11:17:41;;;;;;;10.47;6.83;;;;;;;2.46;74.14;99256.06;5053671;28;20052;-80
2021/03/19 11:20:12;;;;;;;10.00;6.25;;;;;;;2.74;76.78;99267.09;5051850;28;20049;-79
2021/03/19 11:22:41;;;;;;;10.15;6.20;;;;;;;2.88;76.67;99261.41;5053659;28;20443;-80
2021/03/19 11:25:45;;;;;;;10.80;5.93;;;;;;;3.30;74.68;99264.00;5052426;28;20052;-79
2021/03/19 11:28:37;;;;;;;11.48;6.72;;;;;;;3.21;72.29;99239.75;5053686;28;20053;-79
2021/03/19 11:31:19;;;;;;;11.55;6.68;;;;;;;3.14;72.98;99248.38;5035951;28;20055;-80
2021/03/19 11:34:28;;;;;;;11.68;7.10;;;;;;;3.16;72.20;99259.84;5053524;28;20163;-80
2021/03/19 11:36:59;;;;;;;13.52;7.70;;;;;;;3.13;72.64;99270.00;5052900;28;20087;-80
2021/03/19 11:39:39;;;;;;;13.77;7.80;;;;;;;2.86;72.68;99260.69;5053693;28;20107;-79
2021/03/19 11:42:10;;;;;;;13.23;7.40;;;;;;;2.98;72.28;99274.88;5053315;28;20068;-79
2021/03/19 11:44:37;;;;;;;14.60;5.82;;;;;;;3.07;71.86;99263.34;5052570;28;20076;-80
2021/03/19 11:47:13;;;;;;;13.18;6.55;;;;;;;2.95;72.22;99277.81;5052882;28;20083;-80
2021/03/19 11:49:42;;;;;;;15.93;8.32;;;;;;;3.03;72.54;99280.72;5053517;28;20106;-80
2021/03/19 11:52:11;;;;;;;13.37;8.33;;;;;;;3.04;72.34;99289.59;5053225;28;20075;-80
2021/03/19 11:54:38;;;;;;;14.05;8.18;;;;;;;2.79;72.12;99284.53;5052494;28;20060;-80
2021/03/19 11:57:05;;;;;;;17.80;8.98;;;;;;;2.67;74.81;99285.59;5052813;28;20071;-79
2021/03/19 11:59:31;;;;;;;16.75;10.75;;;;;;;2.38;73.22;99290.72;5052725;28;20060;-79
2021/03/19 12:01:59;;;;;;;18.33;10.13;;;;;;;2.28;75.94;99306.78;5053102;28;20186;-79
2021/03/19 12:04:25;;;;;;;16.90;9.05;;;;;;;2.44;75.91;99290.25;5051855;28;20049;-79
2021/03/19 12:06:52;;;;;;;19.20;9.68;;;;;;;2.40;75.02;99286.94;5051360;28;20072;-79
2021/03/19 12:09:19;;;;;;;20.10;9.45;;;;;;;2.41;76.08;99295.84;5052924;28;20048;-79
2021/03/19 12:11:45;;;;;;;18.50;9.00;;;;;;;2.56;75.03;99277.59;5052723;28;20057;-80